Time;durP1;ratioP1;P1;durP2;ratioP2;P2;SDS_P1;SDS_P2;PMS_P1;PMS_P2;Temp;Humidity;BMP_temperature;BMP_pressure;BME280_temperature;BME280_humidity;BME280_pressure;Samples;Min_cycle;Max_cycle;Signal;HPM_P1;HPM_P2
2024/03/14 00:01:26;;;;;;;246.75;61.67;;;;;;;5.83;100.00;100543.56;5037317;28;20076;-74
2024/03/14 00:03:54;;;;;;;229.90;56.10;;;;;;;5.83;100.00;100539.06;5035992;28;20029;-73
2024/03/14 00:06:20;;;;;;;245.82;61.42;;;;;;;5.88;100.00;100546.53;5036293;28;20029;-74
2024/03/14 00:08:45;;;;;;;225.43;57.78;;;;;;;5.88;100.00;100536.69;5035859;28;20464;-73
2024/03/14 00:11:11;;;;;;;245.02;60.03;;;;;;;5.87;100.00;100535.03;5003050;28;20057;-73
2024/03/14 00:13:36;;;;;;;284.35;62.42;;;;;;;5.77;100.00;100514.91;5035841;28;20026;-73
2024/03/14 00:16:03;;;;;;;276.08;62.40;;;;;;;5.72;100.00;100503.91;5035514;28;20396;-74
2024/03/14 00:18:29;;;;;;;308.13;63.22;;;;;;;5.80;100.00;100509.22;5035757;28;20030;-74
2024/03/14 00:20:54;;;;;;;270.65;61.03;;;;;;;5.80;100.00;100517.22;5035812;28;20106;-74
2024/03/14 00:23:23;;;;;;;285.67;62.63;;;;;;;5.83;100.00;100527.56;5036948;28;20392;-73
2024/03/14 00:25:51;;;;;;;292.83;61.83;;;;;;;5.79;100.00;100516.38;5037356;28;20053;-73
2024/03/14 00:28:18;;;;;;;268.42;60.85;;;;;;;5.82;100.00;100512.53;5038446;28;20469;-73
2024/03/14 00:30:44;;;;;;;295.50;62.38;;;;;;;5.82;100.00;100515.19;5052178;28;20056;-73
2024/03/14 00:33:10;;;;;;;267.77;61.17;;;;;;;5.80;100.00;100509.22;5042081;28;20021;-73
2024/03/14 00:35:39;;;;;;;276.48;60.97;;;;;;;5.72;100.00;100487.88;5034015;28;20037;-73
2024/03/14 00:38:05;;;;;;;259.10;60.38;;;;;;;5.29;100.00;100418.06;5036605;28;20025;-73
2024/03/14 00:40:31;;;;;;;242.45;59.42;;;;;;;5.84;100.00;100510.53;5037291;28;20025;-73
2024/03/14 00:42:57;;;;;;;229.10;55.80;;;;;;;5.85;100.00;100498.81;5037283;28;20089;-73
2024/03/14 00:45:28;;;;;;;223.95;57.63;;;;;;;5.91;100.00;100498.13;5036619;28;20083;-73
2024/03/14 00:47:56;;;;;;;237.93;56.67;;;;;;;5.82;100.00;100477.81;5035607;28;20080;-73
2024/03/14 00:50:22;;;;;;;219.02;58.10;;;;;;;5.87;100.00;100475.47;5020294;28;20041;-73
2024/03/14 00:52:48;;;;;;;232.63;58.65;;;;;;;6.02;100.00;100489.72;5019770;28;20128;-73
2024/03/14 00:55:14;;;;;;;226.00;56.10;;;;;;;6.06;100.00;100477.72;5037094;28;20072;-73
2024/03/14 00:57:39;;;;;;;251.55;59.22;;;;;;;6.03;100.00;100466.53;5020614;28;20187;-73
2024/03/14 01:00:13;;;;;;;241.82;57.92;;;;;;;6.13;100.00;100467.13;5024538;28;348662;-73
2024/03/14 01:02:54;;;;;;;249.35;58.35;;;;;;;6.09;100.00;100453.31;5031412;28;20397;-73
2024/03/14 01:05:21;;;;;;;225.18;55.08;;;;;;;6.16;100.00;100465.94;5037087;28;20128;-73
2024/03/14 01:07:48;;;;;;;245.10;58.47;;;;;;;6.15;100.00;100466.94;5019059;28;20052;-73
2024/03/14 01:10:14;;;;;;;235.93;56.92;;;;;;;5.90;100.00;100421.69;5035999;28;20033;-74
2024/03/14 01:12:39;;;;;;;224.25;56.97;;;;;;;6.15;100.00;100466.94;5035922;28;20405;-73
2024/03/14 01:15:06;;;;;;;251.55;54.67;;;;;;;6.14;100.00;100463.44;5035338;28;20061;-73
2024/03/14 01:17:33;;;;;;;246.75;57.72;;;;;;;6.16;100.00;100465.94;5035693;28;20045;-73
2024/03/14 01:19:58;;;;;;;236.27;56.88;;;;;;;6.11;100.00;100455.78;5041725;28;20044;-74
2024/03/14 01:22:24;;;;;;;250.90;59.15;;;;;;;6.13;100.00;100455.63;5033379;28;20017;-73
2024/03/14 01:24:49;;;;;;;212.70;52.88;;;;;;;6.16;100.00;100463.25;5036465;28;20029;-73
2024/03/14 01:27:18;;;;;;;215.70;53.47;;;;;;;6.14;100.00;100444.75;5014150;28;20392;-73
2024/03/14 01:29:45;;;;;;;207.10;54.58;;;;;;;6.15;100.00;100441.06;5019448;28;20079;-73
2024/03/14 01:32:11;;;;;;;185.35;51.67;;;;;;;6.22;100.00;100442.00;5036578;28;20027;-73
2024/03/14 01:34:36;;;;;;;180.20;47.90;;;;;;;6.24;100.00;100433.81;5017405;28;20178;-74
2024/03/14 01:37:06;;;;;;;189.95;53.90;;;;;;;6.26;100.00;100442.50;5021781;28;20041;-73
2024/03/14 01:39:31;;;;;;;181.43;49.88;;;;;;;6.16;100.00;100405.34;5038193;28;20037;-73
2024/03/14 01:41:57;;;;;;;175.05;50.58;;;;;;;6.30;100.00;100417.06;5037115;28;20022;-73
2024/03/14 01:44:23;;;;;;;168.70;50.25;;;;;;;6.30;100.00;100419.75;5036414;28;20045;-73
2024/03/14 01:46:49;;;;;;;166.95;50.85;;;;;;;6.35;100.00;100436.03;5021867;28;20049;-73
2024/03/14 01:49:15;;;;;;;179.23;51.45;;;;;;;6.37;100.00;100428.69;5040973;28;20038;-73
2024/03/14 01:51:41;;;;;;;177.13;51.10;;;;;;;6.34;100.00;100423.72;5041661;28;20041;-72
2024/03/14 01:54:06;;;;;;;181.45;51.45;;;;;;;6.32;100.00;100405.19;5041493;28;20021;-73
2024/03/14 01:56:32;;;;;;;170.93;51.25;;;;;;;6.47;100.00;100418.56;5023703;28;20052;-73
2024/03/14 01:58:58;;;;;;;183.27;51.35;;;;;;;6.50;100.00;100418.22;5024176;28;20033;-73
2024/03/14 02:01:24;;;;;;;176.45;52.63;;;;;;;6.39;100.00;100399.97;5040368;28;20084;-73
2024/03/14 02:04:22;;;;;;;169.68;50.20;;;;;;;6.50;100.00;100412.88;5040522;28;20416;-73
2024/03/14 02:06:59;;;;;;;164.77;47.42;;;;;;;6.43;100.00;100384.38;5042213;28;20463;-73
2024/03/14 02:09:26;;;;;;;172.32;49.22;;;;;;;6.55;100.00;100412.31;5042553;28;20056;-72
2024/03/14 02:11:52;;;;;;;150.32;45.60;;;;;;;6.52;100.00;100396.63;5040840;28;20038;-74
2024/03/14 02:14:17;;;;;;;135.75;45.05;;;;;;;6.44;100.00;100386.88;5040538;28;20034;-73
2024/03/14 02:16:43;;;;;;;137.10;44.65;;;;;;;6.58;100.00;100415.44;5007454;28;20025;-73
2024/03/14 02:19:08;;;;;;;137.95;44.67;;;;;;;6.57;100.00;100403.09;5040616;28;20025;-73
2024/03/14 02:21:34;;;;;;;126.03;43.90;;;;;;;6.62;100.00;100399.88;5023902;28;20505;-73
2024/03/14 02:23:59;;;;;;;128.98;41.33;;;;;;;6.58;100.00;100394.06;5041349;28;20085;-73
2024/03/14 02:26:26;;;;;;;133.85;43.92;;;;;;;6.59;100.00;100403.75;5024996;28;20033;-73
2024/03/14 02:28:52;;;;;;;141.15;44.88;;;;;;;6.51;100.00;100376.28;5040329;28;20105;-73
2024/03/14 02:31:17;;;;;;;121.78;42.15;;;;;;;6.59;100.00;100389.56;5007070;28;20079;-73
2024/03/14 02:33:44;;;;;;;123.00;44.70;;;;;;;6.56;100.00;100396.09;5039182;28;20041;-73
2024/03/14 02:36:09;;;;;;;133.88;44.40;;;;;;;6.54;100.00;100389.28;5041292;28;20396;-73
2024/03/14 02:38:35;;;;;;;131.68;44.10;;;;;;;6.59;100.00;100381.53;5052789;28;20093;-73
2024/03/14 02:41:00;;;;;;;132.55;44.53;;;;;;;6.57;100.00;100384.38;5036138;28;20021;-73
2024/03/14 02:43:25;;;;;;;135.38;44.33;;;;;;;6.34;100.00;100344.38;5036046;28;20066;-71
2024/03/14 02:45:51;;;;;;;134.70;44.33;;;;;;;6.53;100.00;100380.44;5036468;28;20036;-73
2024/03/14 02:48:17;;;;;;;125.03;42.25;;;;;;;6.54;100.00;100376.72;5055289;28;20029;-73
2024/03/14 02:50:44;;;;;;;123.03;40.65;;;;;;;6.55;100.00;100381.06;5037017;28;20033;-73
2024/03/14 02:53:13;;;;;;;123.60;41.70;;;;;;;6.53;100.00;100380.44;5051647;28;20025;-74
2024/03/14 02:55:38;;;;;;;123.22;40.63;;;;;;;6.50;100.00;100366.59;5052837;28;20009;-73
2024/03/14 02:58:04;;;;;;;106.68;38.95;;;;;;;6.55;100.00;100374.88;5052013;28;20033;-73
2024/03/14 03:00:32;;;;;;;118.13;40.35;;;;;;;6.35;100.00;100343.34;5035799;28;20053;-73
2024/03/14 03:02:58;;;;;;;107.80;38.85;;;;;;;6.51;100.00;100369.06;5027942;28;20111;-73
2024/03/14 03:05:23;;;;;;;119.97;40.95;;;;;;;6.35;100.00;100339.84;5040452;28;20033;-73
2024/03/14 03:07:49;;;;;;;114.50;39.10;;;;;;;6.40;100.00;100352.69;5007377;28;20091;-73
2024/03/14 03:10:16;;;;;;;112.90;39.38;;;;;;;6.49;100.00;100371.13;5040331;28;20025;-73
2024/03/14 03:12:41;;;;;;;111.90;38.63;;;;;;;6.48;100.00;100356.06;5041589;28;20048;-73
2024/03/14 03:15:10;;;;;;;102.47;37.35;;;;;;;6.31;100.00;100341.22;5040027;28;20033;-74
2024/03/14 03:17:35;;;;;;;107.45;36.55;;;;;;;6.48;100.00;100361.41;5041086;28;20391;-73
2024/03/14 03:20:10;;;;;;;107.15;37.40;;;;;;;6.48;100.00;100349.91;5040805;28;20026;-73
2024/03/14 03:23:06;;;;;;;108.85;37.05;;;;;;;6.34;100.00;100338.19;5040444;28;20488;-73
2024/03/14 03:25:21;;;;;;;108.85;36.58;;;;;;;6.45;100.00;100355.63;5040033;28;20056;-73
2024/03/14 03:27:47;;;;;;;111.75;37.85;;;;;;;6.41;100.00;100359.69;5038700;28;20133;-73
2024/03/14 03:30:12;;;;;;;109.13;35.25;;;;;;;6.33;100.00;100342.72;5038827;28;20099;-73
2024/03/14 03:32:38;;;;;;;99.38;33.47;;;;;;;6.45;100.00;100356.44;5038974;28;20041;-74
2024/03/14 03:35:03;;;;;;;98.03;33.83;;;;;;;6.43;100.00;100361.16;5038932;28;20030;-73
2024/03/14 03:37:29;;;;;;;107.93;35.38;;;;;;;6.40;100.00;100358.84;5039967;28;20017;-73
2024/03/14 03:39:56;;;;;;;100.07;36.00;;;;;;;6.42;100.00;100367.50;5037897;28;20033;-73
2024/03/14 03:42:22;;;;;;;106.25;35.70;;;;;;;6.41;100.00;100365.84;5038446;28;20037;-73
2024/03/14 03:44:49;;;;;;;101.85;34.78;;;;;;;6.45;100.00;100360.97;5021641;28;20030;-73
2024/03/14 03:47:16;;;;;;;103.78;35.78;;;;;;;6.42;100.00;100367.50;5022088;28;20029;-73
2024/03/14 03:49:42;;;;;;;105.65;33.83;;;;;;;6.40;100.00;100364.19;5022251;28;20040;-73
2024/03/14 03:52:12;;;;;;;107.60;35.28;;;;;;;6.40;100.00;100369.53;5038473;28;20030;-73
2024/03/14 03:54:39;;;;;;;104.13;34.90;;;;;;;6.27;100.00;100355.97;5038422;28;20104;-73
2024/03/14 03:57:04;;;;;;;108.10;35.55;;;;;;;6.10;100.00;100329.41;5039524;28;20408;-73
2024/03/14 03:59:30;;;;;;;106.93;35.50;;;;;;;6.35;100.00;100353.22;5038688;28;20058;-73
2024/03/14 04:01:56;;;;;;;93.57;34.22;;;;;;;6.37;100.00;100369.91;5038272;28;20040;-73
2024/03/14 04:04:22;;;;;;;99.10;33.78;;;;;;;6.39;100.00;100357.19;5040119;28;20072;-73
2024/03/14 04:06:48;;;;;;;95.35;33.25;;;;;;;6.48;100.00;100360.59;5038567;28;20041;-73
2024/03/14 04:09:16;;;;;;;107.65;34.65;;;;;;;6.44;100.00;100373.50;5037492;28;20049;-73
2024/03/14 04:11:44;;;;;;;102.50;32.97;;;;;;;6.43;100.00;100366.50;5035144;28;20029;-73
2024/03/14 04:14:10;;;;;;;112.35;34.30;;;;;;;6.35;100.00;100358.56;5049428;28;20052;-73
2024/03/14 04:16:36;;;;;;;102.70;32.95;;;;;;;6.27;100.00;100354.13;5030729;28;20092;-73
2024/03/14 04:19:06;;;;;;;97.00;32.05;;;;;;;6.33;100.00;100363.28;5050167;28;20021;-73
2024/03/14 04:21:31;;;;;;;107.60;32.42;;;;;;;6.25;100.00;100349.97;5048485;28;20025;-73
2024/03/14 04:23:57;;;;;;;94.28;30.58;;;;;;;6.08;100.00;100323.41;5049253;28;20032;-74
2024/03/14 04:26:22;;;;;;;93.45;32.58;;;;;;;6.22;100.00;100356.50;5052669;28;20039;-73
2024/03/14 04:28:49;;;;;;;98.88;32.00;;;;;;;6.11;100.00;100341.75;5058996;28;20079;-73
2024/03/14 04:31:17;;;;;;;98.72;31.40;;;;;;;6.22;100.00;100355.69;5058564;28;20037;-73
2024/03/14 04:33:43;;;;;;;98.05;31.50;;;;;;;5.97;100.00;100304.34;5060748;28;20032;-74
2024/03/14 04:36:09;;;;;;;93.18;31.00;;;;;;;5.96;100.00;100311.53;5058558;28;20029;-74
2024/03/14 04:38:34;;;;;;;97.68;30.73;;;;;;;6.20;100.00;100352.38;5055868;28;20174;-73
2024/03/14 04:41:00;;;;;;;95.75;31.42;;;;;;;6.17;100.00;100336.72;5044458;28;20033;-73
2024/03/14 04:43:27;;;;;;;98.28;31.55;;;;;;;6.15;100.00;100333.38;5053764;28;20029;-73
2024/03/14 04:45:53;;;;;;;98.68;30.30;;;;;;;6.20;100.00;100352.38;5048118;28;20550;-73
2024/03/14 04:48:18;;;;;;;97.45;29.88;;;;;;;6.20;100.00;100349.69;5047430;28;20037;-71
2024/03/14 04:50:46;;;;;;;85.35;28.33;;;;;;;6.01;100.00;100322.47;5020796;28;20037;-73
2024/03/14 04:53:12;;;;;;;90.03;31.23;;;;;;;6.20;100.00;100350.53;5038226;28;20026;-73
2024/03/14 04:55:41;;;;;;;92.10;30.17;;;;;;;6.13;100.00;100343.44;5042287;28;20476;-74
2024/03/14 04:58:06;;;;;;;87.43;29.15;;;;;;;6.23;100.00;100355.50;5070733;28;20021;-74
2024/03/14 05:00:32;;;;;;;80.78;29.00;;;;;;;6.01;100.00;100317.16;5070865;28;20067;-74
2024/03/14 05:02:58;;;;;;;76.82;28.50;;;;;;;6.25;100.00;100355.31;5069315;28;20041;-73
2024/03/14 05:05:24;;;;;;;79.60;30.33;;;;;;;6.26;100.00;100340.97;5037361;28;20025;-73
2024/03/14 05:07:53;;;;;;;84.13;28.52;;;;;;;6.25;100.00;100333.94;5070200;28;20112;-72
2024/03/14 05:10:18;;;;;;;90.15;28.10;;;;;;;6.26;100.00;100336.44;5050593;28;20043;-73
2024/03/14 05:12:45;;;;;;;71.25;27.30;;;;;;;6.31;100.00;100343.91;5068040;28;20041;-75
2024/03/14 05:15:10;;;;;;;68.80;27.45;;;;;;;6.32;100.00;100348.22;5068605;28;20037;-74
2024/03/14 05:17:36;;;;;;;84.80;27.38;;;;;;;6.31;100.00;100351.91;5050619;28;20067;-73
2024/03/14 05:20:05;;;;;;;81.32;28.45;;;;;;;6.38;100.00;100352.03;5071063;28;20036;-75
2024/03/14 05:22:33;;;;;;;73.35;27.67;;;;;;;6.23;100.00;100331.47;5064947;28;20044;-75
2024/03/14 05:25:03;;;;;;;78.10;24.60;;;;;;;6.41;100.00;100349.81;5068533;28;20040;-77
2024/03/14 05:27:30;;;;;;;83.28;29.42;;;;;;;6.41;100.00;100355.16;5053025;28;20393;-74
2024/03/14 05:29:56;;;;;;;70.25;27.90;;;;;;;6.41;100.00;100355.16;5052214;28;20037;-74
2024/03/14 05:32:23;;;;;;;77.90;28.08;;;;;;;6.28;100.00;100328.22;5063168;28;20059;-74
2024/03/14 05:34:52;;;;;;;78.03;26.30;;;;;;;6.46;100.00;100346.59;5057726;28;20032;-76
2024/03/14 05:37:18;;;;;;;80.07;28.75;;;;;;;6.38;100.00;100330.66;5055691;28;20480;-74
2024/03/14 05:39:43;;;;;;;74.25;28.30;;;;;;;6.48;100.00;100340.03;5043424;28;20041;-74
2024/03/14 05:42:18;;;;;;;75.57;28.40;;;;;;;6.38;100.00;100323.44;5057384;28;20192;-73
2024/03/14 05:44:43;;;;;;;81.05;28.15;;;;;;;6.50;100.00;100342.53;5036476;28;20029;-71
2024/03/14 05:47:11;;;;;;;68.55;26.38;;;;;;;6.50;100.00;100350.56;5038960;28;20337;-72
2024/03/14 05:49:38;;;;;;;76.03;27.05;;;;;;;6.42;100.00;100339.94;5046799;28;20041;-75
2024/03/14 05:52:03;;;;;;;74.63;27.75;;;;;;;6.53;100.00;100348.34;5048404;28;20081;-73
2024/03/14 05:54:30;;;;;;;74.18;26.40;;;;;;;6.45;100.00;100340.41;5046031;28;20018;-73
2024/03/14 05:56:56;;;;;;;67.80;25.85;;;;;;;6.55;100.00;100361.50;5046164;28;20022;-73
2024/03/14 05:59:21;;;;;;;69.75;25.40;;;;;;;6.57;100.00;100349.63;5059652;28;20045;-72
2024/03/14 06:01:47;;;;;;;67.03;24.95;;;;;;;6.46;100.00;100335.91;5045114;28;20035;-73
2024/03/14 06:04:13;;;;;;;62.05;24.85;;;;;;;6.59;100.00;100347.63;5041054;28;20029;-73
2024/03/14 06:06:38;;;;;;;59.92;24.65;;;;;;;6.58;100.00;100339.75;5050517;28;20036;-73
2024/03/14 06:09:04;;;;;;;67.45;25.23;;;;;;;6.59;100.00;100341.44;5066905;28;20574;-73
2024/03/14 06:11:32;;;;;;;62.35;24.42;;;;;;;6.61;100.00;100342.06;5068665;28;20042;-73
2024/03/14 06:13:58;;;;;;;58.78;23.17;;;;;;;6.62;100.00;100338.38;5065861;28;20060;-72
2024/03/14 06:16:25;;;;;;;57.90;23.02;;;;;;;6.67;100.00;100343.19;5047640;28;20037;-73
2024/03/14 06:18:50;;;;;;;67.75;24.65;;;;;;;6.65;100.00;100339.84;5048317;28;20037;-73
2024/03/14 06:21:16;;;;;;;71.63;25.38;;;;;;;6.66;100.00;100345.03;5048966;28;20037;-73
2024/03/14 06:23:41;;;;;;;68.63;25.77;;;;;;;6.68;100.00;100328.78;5063509;28;20036;-73
2024/03/14 06:26:08;;;;;;;69.97;25.25;;;;;;;6.70;100.00;100351.66;5040157;28;20030;-73
2024/03/14 06:28:34;;;;;;;67.30;25.75;;;;;;;6.67;100.00;100349.34;5040976;28;20025;-73
2024/03/14 06:30:59;;;;;;;63.38;24.83;;;;;;;6.72;100.00;100346.13;5057139;28;20037;-73
2024/03/14 06:33:27;;;;;;;55.45;23.02;;;;;;;6.69;100.00;100342.00;5059566;28;20022;-73
2024/03/14 06:35:53;;;;;;;56.97;22.27;;;;;;;6.76;100.00;100348.25;5045352;28;20028;-73
2024/03/14 06:38:18;;;;;;;60.85;22.08;;;;;;;6.80;100.00;100346.88;5046866;28;20029;-73
2024/03/14 06:40:44;;;;;;;56.15;22.23;;;;;;;6.71;100.00;100326.56;5069542;28;20029;-73
2024/03/14 06:43:10;;;;;;;56.85;21.80;;;;;;;6.85;100.00;100351.66;5044667;28;20038;-72
2024/03/14 06:45:36;;;;;;;54.22;21.40;;;;;;;6.84;100.00;100355.34;5040766;28;20033;-73
2024/03/14 06:48:03;;;;;;;52.80;21.65;;;;;;;6.83;100.00;100351.03;5043395;28;20033;-72
2024/03/14 06:50:31;;;;;;;56.88;21.70;;;;;;;6.82;100.00;100349.34;5049837;28;20029;-73
2024/03/14 06:52:58;;;;;;;55.38;21.20;;;;;;;6.82;100.00;100344.00;5049695;28;20095;-73
2024/03/14 06:55:24;;;;;;;47.90;21.10;;;;;;;6.72;100.00;100314.03;5066105;28;20026;-73
2024/03/14 06:57:52;;;;;;;49.03;19.35;;;;;;;6.92;100.00;100343.69;5069008;28;20028;-72
2024/03/14 07:00:22;;;;;;;53.53;20.92;;;;;;;6.93;100.00;100356.91;5053561;28;20049;-73
2024/03/14 07:02:48;;;;;;;55.80;21.33;;;;;;;6.94;100.00;100360.41;5049636;28;20053;-72
2024/03/14 07:05:14;;;;;;;50.13;21.77;;;;;;;6.92;100.00;100360.59;5063919;28;20575;-72
2024/03/14 07:07:42;;;;;;;53.17;20.58;;;;;;;6.83;100.00;100353.69;5064343;28;20392;-72
2024/03/14 07:10:08;;;;;;;56.08;21.50;;;;;;;6.91;100.00;100355.44;5046663;28;20033;-72
2024/03/14 07:12:35;;;;;;;50.70;21.73;;;;;;;6.88;100.00;100358.47;5046222;28;20030;-74
2024/03/14 07:15:03;;;;;;;53.28;22.38;;;;;;;6.92;100.00;100367.78;5049135;28;20014;-72
2024/03/14 07:17:29;;;;;;;57.85;21.77;;;;;;;6.78;100.00;100334.69;5069864;28;20037;-72
2024/03/14 07:19:54;;;;;;;56.75;20.85;;;;;;;6.93;100.00;100362.25;5052807;28;20053;-73
2024/03/14 07:22:24;;;;;;;57.05;21.15;;;;;;;6.65;100.00;100313.94;5068648;28;20036;-72
2024/03/14 07:24:52;;;;;;;62.55;23.25;;;;;;;6.97;100.00;100350.16;5069122;28;20030;-73
2024/03/14 07:27:17;;;;;;;44.47;20.88;;;;;;;7.06;100.00;100359.75;5053660;28;20044;-73
2024/03/14 07:29:47;;;;;;;56.47;21.33;;;;;;;7.09;100.00;100361.22;5054991;28;20034;-74
2024/03/14 07:32:14;;;;;;;44.58;19.70;;;;;;;7.13;100.00;100369.72;5067822;28;20029;-73
2024/03/14 07:34:40;;;;;;;43.90;20.20;;;;;;;7.00;100.00;100341.75;5053023;28;20029;-73
2024/03/14 07:37:05;;;;;;;50.53;21.52;;;;;;;7.03;100.00;100360.13;5045560;28;20029;-74
2024/03/14 07:39:34;;;;;;;53.63;21.52;;;;;;;7.13;100.00;100375.88;5059094;28;20103;-73
2024/03/14 07:42:00;;;;;;;48.47;21.30;;;;;;;7.17;100.00;100373.66;5054523;28;20005;-73
2024/03/14 07:44:27;;;;;;;53.15;20.50;;;;;;;7.19;100.00;100385.00;5060849;28;20082;-73
2024/03/14 07:46:53;;;;;;;42.22;20.77;;;;;;;7.16;100.00;100382.72;5055088;28;20034;-74
2024/03/14 07:49:18;;;;;;;46.10;20.33;;;;;;;7.16;100.00;100388.06;5039954;28;20025;-73
2024/03/14 07:51:43;;;;;;;41.78;19.95;;;;;;;7.18;100.00;100377.97;5026304;28;20033;-74
2024/03/14 07:54:14;;;;;;;46.38;19.67;;;;;;;7.17;100.00;100392.38;5042836;28;20064;-73
2024/03/14 07:56:39;;;;;;;41.88;19.63;;;;;;;6.80;100.00;100328.16;5058651;28;20034;-73
2024/03/14 07:59:05;;;;;;;43.50;18.63;;;;;;;7.15;100.00;100394.41;5043541;28;20098;-73
2024/03/14 08:01:33;;;;;;;47.35;19.02;;;;;;;7.17;100.00;100397.75;5042529;28;20071;-74
2024/03/14 08:04:00;;;;;;;46.70;20.05;;;;;;;7.18;100.00;100402.06;5042622;28;20408;-73
2024/03/14 08:06:27;;;;;;;40.55;18.50;;;;;;;7.16;100.00;100406.78;5026936;28;20103;-73
2024/03/14 08:08:53;;;;;;;39.78;18.15;;;;;;;7.10;100.00;100411.03;5057838;28;20086;-73
2024/03/14 08:11:21;;;;;;;40.53;18.58;;;;;;;7.13;100.00;100408.00;5059421;28;20041;-74
2024/03/14 08:13:47;;;;;;;40.05;17.65;;;;;;;7.12;100.00;100410.84;5043734;28;20050;-73
2024/03/14 08:16:18;;;;;;;40.85;17.42;;;;;;;7.00;100.00;100392.59;5043141;28;20034;-73
2024/03/14 08:18:46;;;;;;;41.80;18.00;;;;;;;7.11;100.00;100422.56;5058564;28;20458;-73
2024/03/14 08:21:13;;;;;;;31.35;15.40;;;;;;;7.15;100.00;100423.84;5058210;28;20055;-73
2024/03/14 08:23:42;;;;;;;38.28;17.52;;;;;;;7.12;100.00;100402.81;5043610;28;20538;-73
2024/03/14 08:26:08;;;;;;;36.03;17.42;;;;;;;7.00;100.00;100376.53;5042774;28;20025;-73
2024/03/14 08:28:41;;;;;;;38.95;16.63;;;;;;;7.23;100.00;100421.91;5042553;28;20026;-73
2024/03/14 08:31:15;;;;;;;32.70;17.25;;;;;;;7.25;100.00;100414.53;5057025;28;20021;-72
2024/03/14 08:33:44;;;;;;;43.22;17.95;;;;;;;7.23;100.00;100405.03;5041347;28;20029;-73
2024/03/14 08:36:11;;;;;;;38.05;17.65;;;;;;;7.31;100.00;100418.28;5043872;28;20065;-73
2024/03/14 08:38:36;;;;;;;34.75;16.95;;;;;;;7.28;100.00;100416.84;5058237;28;20025;-73
2024/03/14 08:41:03;;;;;;;31.60;17.08;;;;;;;7.32;100.00;100416.44;5041452;28;20033;-73
2024/03/14 08:43:30;;;;;;;30.63;17.33;;;;;;;7.34;100.00;100409.06;5058610;28;20025;-73
2024/03/14 08:45:56;;;;;;;30.65;16.38;;;;;;;7.41;100.00;100415.31;5043049;28;20056;-74
2024/03/14 08:48:22;;;;;;;32.00;16.98;;;;;;;7.38;100.00;100400.47;5042263;28;20033;-73
2024/03/14 08:50:47;;;;;;;34.60;17.38;;;;;;;7.56;100.00;100407.25;5058533;28;20531;-73
2024/03/14 08:53:13;;;;;;;29.48;16.55;;;;;;;7.61;100.00;100389.59;5059136;28;20626;-73
2024/03/14 08:55:54;;;;;;;23.33;15.40;;;;;;;7.67;100.00;100404.91;5025723;28;20492;-73
2024/03/14 08:58:26;;;;;;;22.75;15.23;;;;;;;7.75;100.00;100412.84;5044451;28;20044;-73
2024/03/14 09:00:52;;;;;;;28.55;15.05;;;;;;;7.80;100.00;100409.56;5043575;28;20049;-73
2024/03/14 09:03:18;;;;;;;24.98;15.13;;;;;;;7.85;100.00;100423.25;5043054;28;20029;-74
2024/03/14 09:05:44;;;;;;;26.85;16.63;;;;;;;7.75;100.00;100396.75;5044965;28;20510;-73
2024/03/14 09:08:11;;;;;;;30.75;18.23;;;;;;;7.87;100.00;100420.34;5061136;28;20048;-73
2024/03/14 09:10:39;;;;;;;28.42;17.33;;;;;;;7.84;100.00;100416.19;5046699;28;20029;-73
2024/03/14 09:13:06;;;;;;;33.33;18.50;;;;;;;7.68;100.00;100397.69;5045306;28;20029;-73
2024/03/14 09:15:33;;;;;;;29.63;18.50;;;;;;;7.84;100.00;100415.38;5028203;28;20041;-73
2024/03/14 09:17:59;;;;;;;27.65;17.90;;;;;;;7.82;100.00;100410.22;5044044;28;20037;-73
2024/03/14 09:20:25;;;;;;;37.67;19.10;;;;;;;7.89;100.00;100413.78;5043575;28;20022;-73
2024/03/14 09:22:55;;;;;;;35.22;19.40;;;;;;;7.86;100.00;100414.16;5043937;28;20034;-73
2024/03/14 09:25:22;;;;;;;27.77;19.02;;;;;;;7.89;100.00;100413.78;5058257;28;20063;-73
2024/03/14 09:27:48;;;;;;;29.33;18.88;;;;;;;7.86;100.00;100424.88;5044769;28;20466;-74
2024/03/14 09:30:14;;;;;;;35.55;19.25;;;;;;;7.80;100.00;100408.75;5043586;28;20029;-73
2024/03/14 09:32:41;;;;;;;30.60;19.75;;;;;;;7.64;100.00;100391.06;5043597;28;20040;-73
2024/03/14 09:35:11;;;;;;;35.40;19.67;;;;;;;7.80;100.00;100408.75;5044099;28;20025;-73
2024/03/14 09:37:37;;;;;;;31.75;19.90;;;;;;;7.89;100.00;100418.31;5043204;28;20030;-73
2024/03/14 09:40:05;;;;;;;28.90;18.08;;;;;;;7.88;100.00;100419.31;5043721;28;20025;-73
2024/03/14 09:42:32;;;;;;;33.28;19.58;;;;;;;7.89;100.00;100419.16;5043649;28;20039;-73
2024/03/14 09:45:01;;;;;;;26.70;18.38;;;;;;;7.87;100.00;100421.19;5042682;28;20038;-73
2024/03/14 09:47:33;;;;;;;29.17;17.05;;;;;;;7.89;100.00;100424.50;5043571;28;20280;-74
2024/03/14 09:50:08;;;;;;;31.58;18.77;;;;;;;7.91;100.00;100429.66;5060283;28;20029;-73
2024/03/14 09:52:35;;;;;;;31.25;19.48;;;;;;;7.87;100.00;100425.72;5058537;28;20025;-74
2024/03/14 09:55:02;;;;;;;30.35;18.00;;;;;;;7.88;100.00;100430.91;5058829;28;20022;-74
2024/03/14 09:57:29;;;;;;;28.63;18.58;;;;;;;7.87;100.00;100423.03;5060174;28;20403;-74
2024/03/14 09:59:55;;;;;;;33.10;19.52;;;;;;;8.00;100.00;100425.84;5043708;28;20049;-74
2024/03/14 10:02:25;;;;;;;34.80;18.85;;;;;;;8.02;100.00;100423.00;5044220;28;20026;-74
2024/03/14 10:04:52;;;;;;;30.63;18.13;;;;;;;8.02;100.00;100433.72;5043325;28;20116;-74
2024/03/14 10:07:17;;;;;;;32.30;18.73;;;;;;;7.95;100.00;100433.63;5045215;28;20021;-74
2024/03/14 10:09:43;;;;;;;32.20;19.48;;;;;;;7.94;100.00;100438.16;5047572;28;20037;-73
2024/03/14 10:12:14;;;;;;;37.15;19.42;;;;;;;7.91;100.00;100437.69;5048621;28;20060;-74
2024/03/14 10:14:42;;;;;;;30.13;17.52;;;;;;;7.98;100.00;100427.91;5063875;28;20123;-74
2024/03/14 10:17:08;;;;;;;29.58;18.42;;;;;;;7.97;100.00;100432.41;5049455;28;20118;-74
2024/03/14 10:19:35;;;;;;;32.70;19.45;;;;;;;8.07;100.00;100437.44;5048841;28;20045;-73
2024/03/14 10:22:02;;;;;;;32.33;18.05;;;;;;;8.10;100.00;100430.88;5048667;28;20029;-73
2024/03/14 10:24:30;;;;;;;32.38;19.30;;;;;;;8.19;100.00;100429.72;5048496;28;20025;-74
2024/03/14 10:26:56;;;;;;;30.30;18.65;;;;;;;8.17;100.00;100437.94;5046783;28;20048;-74
2024/03/14 10:29:22;;;;;;;29.75;18.83;;;;;;;8.18;100.00;100433.44;5064518;28;20034;-74
2024/03/14 10:31:52;;;;;;;32.45;18.02;;;;;;;8.17;100.00;100431.75;5065341;28;20057;-74
2024/03/14 10:34:19;;;;;;;28.65;18.13;;;;;;;8.28;100.00;100433.94;5064581;28;20029;-74
2024/03/14 10:36:52;;;;;;;30.45;18.85;;;;;;;8.35;100.00;100436.69;5047761;28;20030;-74
2024/03/14 10:39:18;;;;;;;30.60;19.40;;;;;;;8.28;100.00;100428.59;5047943;28;20064;-74
2024/03/14 10:41:49;;;;;;;27.52;18.92;;;;;;;8.35;100.00;100436.69;5064715;28;20033;-74
2024/03/14 10:44:21;;;;;;;27.33;18.83;;;;;;;8.39;100.00;100428.06;5049090;28;20500;-73
2024/03/14 10:46:51;;;;;;;29.52;20.02;;;;;;;8.34;100.00;100418.91;5047979;28;20021;-74
2024/03/14 10:49:22;;;;;;;26.25;19.58;;;;;;;8.46;100.00;100436.19;5047556;28;20034;-74
2024/03/14 10:51:53;;;;;;;28.63;18.65;;;;;;;8.48;100.00;100442.19;5048345;28;20063;-74
2024/03/14 10:54:23;;;;;;;29.73;19.50;;;;;;;8.44;100.00;100444.44;5048986;28;20033;-74
2024/03/14 10:56:49;;;;;;;28.05;19.15;;;;;;;8.51;100.00;100448.97;5049432;28;20029;-74
2024/03/14 10:59:16;;;;;;;23.83;18.40;;;;;;;8.49;100.00;100445.69;5049716;28;20026;-73
2024/03/14 11:01:50;;;;;;;26.88;19.30;;;;;;;8.55;100.00;100444.91;5050894;28;20060;-74
2024/03/14 11:04:20;;;;;;;;;;;;;;;8.50;100.00;100447.34;5050178;28;20100;-74
2024/03/14 11:06:49;;;;;;;28.90;19.48;;;;;;;8.53;100.00;100444.28;5049588;28;19909;-74